createdAt,value
2022-12-14T00:02:08.366Z,2.57
2022-12-14T00:04:41.327Z,2.58
2022-12-14T00:07:14.565Z,2.61
2022-12-14T00:09:47.477Z,2.63
2022-12-14T00:12:20.424Z,2.65
2022-12-14T00:14:53.711Z,2.66
2022-12-14T00:17:28.392Z,2.68
2022-12-14T00:20:01.381Z,2.67
2022-12-14T00:22:34.385Z,2.68
2022-12-14T00:25:08.464Z,2.68
2022-12-14T00:27:44.497Z,2.70
2022-12-14T00:30:20.636Z,2.71
2022-12-14T00:32:55.047Z,2.71
2022-12-14T00:35:28.329Z,2.71
2022-12-14T00:38:01.451Z,2.73
2022-12-14T00:40:34.359Z,2.71
2022-12-14T00:43:07.270Z,2.69
2022-12-14T00:45:40.347Z,2.67
2022-12-14T00:48:16.339Z,2.65
2022-12-14T00:50:50.997Z,2.65
2022-12-14T00:53:24.771Z,2.61
2022-12-14T00:55:58.863Z,2.60
2022-12-14T00:58:32.022Z,2.57
2022-12-14T01:01:07.956Z,2.57
2022-12-14T01:03:42.645Z,2.56
2022-12-14T01:06:17.324Z,2.55
2022-12-14T01:08:50.600Z,2.54
2022-12-14T01:11:23.751Z,2.52
2022-12-14T01:13:57.134Z,2.52
2022-12-14T01:16:30.129Z,2.52
2022-12-14T01:19:05.211Z,2.53
2022-12-14T01:21:38.222Z,2.52
2022-12-14T01:24:11.360Z,2.52
2022-12-14T01:26:44.351Z,2.51
2022-12-14T01:29:17.676Z,2.52
2022-12-14T01:31:50.690Z,2.52
2022-12-14T01:34:25.163Z,2.53
2022-12-14T01:36:58.136Z,2.53
2022-12-14T01:39:31.483Z,2.51
2022-12-14T01:42:04.876Z,2.52
2022-12-14T01:44:57.356Z,2.52
2022-12-14T01:47:38.460Z,2.52
2022-12-14T01:50:21.352Z,2.51
2022-12-14T01:52:58.000Z,2.52
2022-12-14T01:55:35.645Z,2.51
2022-12-14T01:58:12.490Z,2.47
2022-12-14T02:00:45.977Z,2.46
2022-12-14T02:03:23.952Z,2.47
2022-12-14T02:06:02.355Z,2.45
2022-12-14T02:08:35.948Z,2.42
2022-12-14T02:11:08.893Z,2.42
2022-12-14T02:13:43.803Z,2.42
2022-12-14T02:16:21.657Z,2.41
2022-12-14T02:18:54.836Z,2.44
2022-12-14T02:21:45.709Z,2.46
2022-12-14T02:24:44.471Z,2.48
2022-12-14T02:27:38.346Z,2.52
2022-12-14T02:30:16.076Z,2.53
2022-12-14T02:33:14.143Z,2.58
2022-12-14T02:35:51.968Z,2.60
2022-12-14T02:38:43.234Z,2.64
2022-12-14T02:41:23.904Z,2.67
2022-12-14T02:44:06.982Z,2.70
2022-12-14T02:46:50.567Z,2.69
2022-12-14T02:49:35.900Z,2.70
2022-12-14T02:52:15.616Z,2.70
2022-12-14T02:54:55.977Z,2.71
2022-12-14T02:57:31.970Z,2.70
2022-12-14T03:00:08.143Z,2.74
2022-12-14T03:02:44.843Z,2.74
2022-12-14T03:05:18.092Z,2.75
2022-12-14T03:07:54.103Z,2.74
2022-12-14T03:10:36.304Z,2.77
2022-12-14T03:13:16.557Z,2.78
2022-12-14T03:15:56.902Z,2.79
2022-12-14T03:18:37.047Z,2.83
2022-12-14T03:21:13.057Z,2.83
2022-12-14T03:23:48.863Z,2.85
2022-12-14T03:26:27.203Z,2.88
2022-12-14T03:29:06.899Z,2.89
2022-12-14T03:31:49.153Z,2.93
2022-12-14T03:34:29.660Z,2.95
2022-12-14T03:37:10.724Z,2.97
2022-12-14T03:39:47.058Z,2.96
2022-12-14T03:42:24.920Z,2.99
2022-12-14T03:45:06.906Z,2.98
2022-12-14T03:47:55.092Z,3.00
2022-12-14T03:50:35.532Z,2.99
2022-12-14T03:53:16.846Z,3.01
2022-12-14T03:56:00.570Z,3.02
2022-12-14T03:58:39.172Z,3.02
2022-12-14T04:01:18.494Z,3.04
2022-12-14T04:03:57.190Z,3.04
2022-12-14T04:06:39.366Z,3.04
2022-12-14T04:09:23.937Z,3.04
2022-12-14T04:12:20.601Z,3.04
2022-12-14T04:15:24.370Z,3.01
2022-12-14T04:18:17.927Z,3.02
2022-12-14T04:20:55.025Z,3.00
2022-12-14T04:23:51.889Z,2.99
2022-12-14T04:26:31.154Z,2.97
2022-12-14T04:29:25.992Z,2.98
2022-12-14T04:32:05.954Z,2.97
2022-12-14T04:34:42.877Z,2.96
2022-12-14T04:37:20.439Z,2.98
2022-12-14T04:40:00.540Z,2.98
2022-12-14T04:42:37.507Z,3.00
2022-12-14T04:45:15.982Z,3.04
2022-12-14T04:47:59.119Z,3.07
2022-12-14T04:50:36.792Z,3.08
2022-12-14T04:53:13.373Z,3.11
2022-12-14T04:55:53.852Z,3.14
2022-12-14T04:58:29.531Z,3.17
2022-12-14T05:01:19.040Z,3.20
2022-12-14T05:04:00.955Z,3.22
2022-12-14T05:06:38.808Z,3.23
2022-12-14T05:09:18.857Z,3.26
2022-12-14T05:12:01.925Z,3.30
2022-12-14T05:14:41.003Z,3.31
2022-12-14T05:17:15.306Z,3.33
2022-12-14T05:19:49.278Z,3.34
2022-12-14T05:22:22.780Z,3.35
2022-12-14T05:24:56.087Z,3.38
2022-12-14T05:27:30.869Z,3.39
2022-12-14T05:30:04.246Z,3.40
2022-12-14T05:32:37.398Z,3.42
2022-12-14T05:35:13.903Z,3.44
2022-12-14T05:37:49.398Z,3.43
2022-12-14T05:40:22.634Z,3.42
2022-12-14T05:43:06.724Z,3.44
2022-12-14T05:45:39.979Z,3.42
2022-12-14T05:48:12.915Z,3.43
2022-12-14T05:50:45.981Z,3.42
2022-12-14T05:53:18.868Z,3.42
2022-12-14T05:55:53.325Z,3.41
2022-12-14T05:58:27.647Z,3.40
2022-12-14T06:01:02.357Z,3.43
2022-12-14T06:03:36.088Z,3.42
2022-12-14T06:06:11.145Z,3.41
2022-12-14T06:08:46.045Z,3.41
2022-12-14T06:11:21.007Z,3.40
2022-12-14T06:13:55.204Z,3.41
2022-12-14T06:16:28.254Z,3.39
2022-12-14T06:19:02.752Z,3.38
2022-12-14T06:21:37.013Z,3.36
2022-12-14T06:24:12.120Z,3.37
2022-12-14T06:26:45.505Z,3.35
2022-12-14T06:29:21.158Z,3.35
2022-12-14T06:31:54.061Z,3.32
2022-12-14T06:34:28.726Z,3.33
2022-12-14T06:37:02.042Z,3.31
2022-12-14T06:39:35.311Z,3.30
2022-12-14T06:42:08.509Z,3.30
2022-12-14T06:44:43.046Z,3.29
2022-12-14T06:47:16.140Z,3.28
2022-12-14T06:49:51.269Z,3.29
2022-12-14T06:52:26.956Z,3.29
2022-12-14T06:55:00.581Z,3.27
2022-12-14T06:57:33.616Z,3.30
2022-12-14T07:00:12.200Z,3.30
2022-12-14T07:02:45.234Z,3.30
2022-12-14T07:05:18.925Z,3.31
2022-12-14T07:07:52.333Z,3.30
2022-12-14T07:10:25.252Z,3.33
2022-12-14T07:13:01.154Z,3.32
2022-12-14T07:15:35.799Z,3.34
2022-12-14T07:18:09.111Z,3.32
2022-12-14T07:20:42.154Z,3.32
2022-12-14T07:23:15.193Z,3.31
2022-12-14T07:25:49.186Z,3.32
2022-12-14T07:28:22.744Z,3.29
2022-12-14T07:30:58.465Z,3.30
2022-12-14T07:33:31.672Z,3.29
2022-12-14T07:36:07.162Z,3.32
2022-12-14T07:38:42.278Z,3.33
2022-12-14T07:41:22.117Z,3.35
2022-12-14T07:43:57.247Z,3.35
2022-12-14T07:46:33.197Z,3.40
2022-12-14T07:49:06.186Z,3.41
2022-12-14T07:51:42.371Z,3.46
2022-12-14T07:54:16.314Z,3.48
2022-12-14T07:56:50.945Z,3.49
2022-12-14T07:59:23.990Z,3.53
2022-12-14T08:01:58.482Z,3.57
2022-12-14T08:04:31.785Z,3.61
2022-12-14T08:07:07.147Z,3.65
2022-12-14T08:09:40.165Z,3.69
2022-12-14T08:12:16.258Z,3.72
2022-12-14T08:14:49.997Z,3.79
2022-12-14T08:17:24.516Z,3.82
2022-12-14T08:19:57.613Z,3.86
2022-12-14T08:22:30.710Z,3.89
2022-12-14T08:25:03.556Z,3.92
2022-12-14T08:27:36.951Z,3.93
2022-12-14T08:30:11.219Z,3.98
2022-12-14T08:32:45.675Z,3.99
2022-12-14T08:35:18.855Z,4.01
2022-12-14T08:37:53.481Z,4.01
2022-12-14T08:40:26.819Z,4.03
2022-12-14T08:42:59.685Z,4.06
2022-12-14T08:45:33.822Z,4.08
2022-12-14T08:48:08.365Z,4.09
2022-12-14T08:50:41.320Z,4.08
2022-12-14T08:53:14.228Z,4.09
2022-12-14T08:55:47.848Z,4.06
2022-12-14T08:58:20.732Z,4.07
2022-12-14T09:01:01.802Z,4.08
2022-12-14T09:03:36.478Z,4.09
2022-12-14T09:06:11.090Z,4.09
2022-12-14T09:08:44.002Z,4.11
2022-12-14T09:11:19.071Z,4.16
2022-12-14T09:13:54.728Z,4.20
2022-12-14T09:16:28.133Z,4.24
2022-12-14T09:19:02.798Z,4.27
2022-12-14T09:21:35.860Z,4.29
2022-12-14T09:24:09.944Z,4.36
2022-12-14T09:26:43.084Z,4.38
2022-12-14T09:29:22.633Z,4.40
2022-12-14T09:31:56.009Z,4.45
2022-12-14T09:34:30.711Z,4.51
2022-12-14T09:37:07.892Z,4.55
2022-12-14T09:39:41.187Z,4.60
2022-12-14T09:42:30.645Z,4.66
2022-12-14T09:45:15.266Z,4.70
2022-12-14T09:47:57.703Z,4.73
2022-12-14T09:50:32.503Z,4.74
2022-12-14T09:53:09.812Z,4.74
2022-12-14T09:55:46.069Z,4.76
2022-12-14T09:58:22.391Z,4.80
2022-12-14T10:01:05.911Z,4.82
2022-12-14T10:03:53.254Z,4.84
2022-12-14T10:06:38.155Z,4.88
2022-12-14T10:09:22.230Z,4.91
2022-12-14T10:12:05.147Z,4.96
2022-12-14T10:14:58.734Z,5.03
2022-12-14T10:17:44.953Z,5.12
2022-12-14T10:20:25.126Z,5.19
2022-12-14T10:23:03.901Z,5.26
2022-12-14T10:25:40.044Z,5.36
2022-12-14T10:28:18.590Z,5.46
2022-12-14T10:30:58.976Z,5.56
2022-12-14T10:33:33.232Z,5.63
2022-12-14T10:36:18.522Z,5.73
2022-12-14T10:38:59.943Z,5.84
2022-12-14T10:41:49.432Z,5.91
2022-12-14T10:44:31.179Z,6.01
2022-12-14T10:47:12.856Z,6.05
2022-12-14T10:49:55.198Z,6.13
2022-12-14T10:52:36.889Z,6.18
2022-12-14T10:55:19.088Z,6.26
2022-12-14T10:57:52.344Z,6.33
2022-12-14T11:00:26.164Z,6.41
2022-12-14T11:03:01.232Z,6.41
2022-12-14T11:05:40.737Z,6.49
2022-12-14T11:08:40.884Z,6.52
2022-12-14T11:11:20.308Z,6.56
2022-12-14T11:13:57.682Z,6.64
2022-12-14T11:16:38.483Z,6.72
2022-12-14T11:19:18.313Z,6.80
2022-12-14T11:21:52.650Z,6.88
2022-12-14T11:24:28.093Z,6.97
2022-12-14T11:27:06.360Z,7.10
2022-12-14T11:29:41.527Z,7.17
2022-12-14T11:32:23.860Z,7.26
2022-12-14T11:34:59.156Z,7.33
2022-12-14T11:37:33.748Z,7.37
2022-12-14T11:40:09.213Z,7.43
2022-12-14T11:42:49.339Z,7.47
2022-12-14T11:45:37.495Z,7.49
2022-12-14T11:48:24.224Z,7.52
2022-12-14T11:51:12.664Z,7.54
2022-12-14T11:54:02.116Z,7.56
2022-12-14T11:56:39.084Z,7.64
2022-12-14T11:59:18.755Z,7.65
2022-12-14T12:01:52.218Z,7.70
2022-12-14T12:04:25.814Z,7.73
2022-12-14T12:07:04.343Z,7.74
2022-12-14T12:09:43.018Z,7.81
2022-12-14T12:12:21.776Z,7.84
2022-12-14T12:15:00.903Z,7.92
2022-12-14T12:17:44.503Z,7.96
2022-12-14T12:20:29.544Z,8.01
2022-12-14T12:23:11.979Z,8.06
2022-12-14T12:25:49.577Z,8.10
2022-12-14T12:28:28.463Z,8.15
2022-12-14T12:31:10.965Z,8.20
2022-12-14T12:33:48.776Z,8.20
2022-12-14T12:36:24.505Z,8.24
2022-12-14T12:39:05.674Z,8.31
2022-12-14T12:41:51.370Z,8.33
2022-12-14T12:44:36.853Z,8.38
2022-12-14T12:47:31.180Z,8.43
2022-12-14T12:50:15.611Z,8.45
2022-12-14T12:53:02.712Z,8.49
2022-12-14T12:55:42.971Z,8.50
2022-12-14T12:58:34.204Z,8.54
2022-12-14T13:01:20.639Z,8.54
2022-12-14T13:03:58.192Z,8.58
2022-12-14T13:06:33.659Z,8.59
2022-12-14T13:09:16.808Z,8.61
2022-12-14T13:11:50.485Z,8.60
2022-12-14T13:14:31.103Z,8.67
2022-12-14T13:17:08.251Z,8.68
2022-12-14T13:19:51.900Z,8.71
2022-12-14T13:22:29.746Z,8.73
2022-12-14T13:25:08.261Z,8.73
2022-12-14T13:28:01.223Z,8.74
2022-12-14T13:30:49.924Z,8.73
2022-12-14T13:33:51.874Z,8.75
2022-12-14T13:37:21.451Z,8.76
2022-12-14T13:40:34.467Z,8.73
2022-12-14T13:43:22.288Z,8.74
2022-12-14T13:45:56.354Z,8.75
2022-12-14T13:48:35.759Z,8.76
2022-12-14T13:51:11.650Z,8.76
2022-12-14T13:53:50.289Z,8.75
2022-12-14T13:56:33.254Z,8.75
2022-12-14T13:59:20.596Z,8.75
2022-12-14T14:01:58.319Z,8.74
2022-12-14T14:04:32.281Z,8.74
2022-12-14T14:07:39.409Z,8.76
2022-12-14T14:10:30.853Z,8.76
2022-12-14T14:13:44.027Z,8.77
2022-12-14T14:16:29.884Z,8.77
2022-12-14T14:19:14.393Z,8.79
2022-12-14T14:25:09.455Z,8.79
2022-12-14T14:27:50.818Z,8.80
2022-12-14T14:30:29.175Z,8.79
2022-12-14T14:33:43.115Z,8.78
2022-12-14T14:36:09.373Z,8.80
2022-12-14T14:38:42.979Z,8.78
2022-12-14T14:41:25.036Z,8.79
2022-12-14T14:44:01.567Z,8.76
2022-12-14T14:46:39.467Z,8.74
2022-12-14T14:49:23.529Z,8.70
2022-12-14T14:51:56.898Z,8.65
2022-12-14T14:55:15.865Z,8.63
2022-12-14T14:57:57.467Z,8.59
2022-12-14T15:00:31.628Z,8.55
2022-12-14T15:03:08.697Z,8.56
2022-12-14T15:05:45.619Z,8.52
2022-12-14T15:08:22.044Z,8.52
2022-12-14T15:10:56.324Z,8.50
2022-12-14T15:13:34.610Z,8.47
2022-12-14T15:16:22.431Z,8.46
2022-12-14T15:18:56.830Z,8.43
2022-12-14T15:21:30.156Z,8.41
2022-12-14T15:24:03.169Z,8.36
2022-12-14T15:26:36.045Z,8.35
2022-12-14T15:29:18.043Z,8.32
2022-12-14T15:31:59.284Z,8.32
2022-12-14T15:34:34.552Z,8.28
2022-12-14T15:37:07.491Z,8.29
2022-12-14T15:39:43.712Z,8.28
2022-12-14T15:42:18.523Z,8.28
2022-12-14T15:44:52.393Z,8.30
2022-12-14T15:47:28.345Z,8.30
2022-12-14T15:50:23.456Z,8.33
2022-12-14T15:53:00.172Z,8.34
2022-12-14T15:55:36.010Z,8.37
2022-12-14T15:58:12.190Z,8.39
2022-12-14T16:00:48.168Z,8.42
2022-12-14T16:03:29.907Z,8.46
2022-12-14T16:06:06.018Z,8.47
2022-12-14T16:08:44.301Z,8.49
2022-12-14T16:11:24.619Z,8.53
2022-12-14T16:14:01.881Z,8.55
2022-12-14T16:16:34.905Z,8.57
2022-12-14T16:19:26.671Z,8.61
2022-12-14T16:22:19.671Z,8.65
2022-12-14T16:25:00.476Z,8.63
2022-12-14T16:27:38.255Z,8.66
2022-12-14T16:30:21.810Z,8.70
2022-12-14T16:33:08.546Z,8.68
2022-12-14T16:35:41.669Z,8.69
2022-12-14T16:38:17.572Z,8.69
2022-12-14T16:40:55.562Z,8.70
2022-12-14T16:43:32.805Z,8.71
2022-12-14T16:46:18.533Z,8.75
2022-12-14T16:49:25.313Z,8.77
2022-12-14T16:52:08.843Z,8.76
2022-12-14T16:54:44.039Z,8.76
2022-12-14T16:57:24.328Z,8.81
2022-12-14T17:00:01.452Z,8.80
2022-12-14T17:02:36.872Z,8.80
2022-12-14T17:05:17.949Z,8.82
2022-12-14T17:07:52.562Z,8.81
2022-12-14T17:10:27.425Z,8.81
2022-12-14T17:13:01.850Z,8.80
2022-12-14T17:15:36.282Z,8.79
2022-12-14T17:18:12.322Z,8.81
2022-12-14T17:20:47.011Z,8.79
2022-12-14T17:23:20.578Z,8.78
2022-12-14T17:25:55.055Z,8.79
2022-12-14T17:28:30.152Z,8.77
2022-12-14T17:31:04.260Z,8.76
2022-12-14T17:33:38.239Z,8.75
2022-12-14T17:36:11.341Z,8.73
2022-12-14T17:38:44.756Z,8.72
2022-12-14T17:41:26.786Z,8.72
2022-12-14T17:43:59.908Z,8.64
2022-12-14T17:46:33.046Z,8.63
2022-12-14T17:49:07.010Z,8.60
2022-12-14T17:51:42.217Z,8.58
2022-12-14T17:54:18.255Z,8.56
2022-12-14T17:57:24.478Z,8.55
2022-12-14T18:00:11.127Z,8.50
2022-12-14T18:02:46.238Z,8.47
2022-12-14T18:05:26.060Z,8.47
2022-12-14T18:07:59.273Z,8.45
2022-12-14T18:10:32.436Z,8.43
2022-12-14T18:13:07.129Z,8.44
2022-12-14T18:15:43.196Z,8.44
2022-12-14T18:18:16.596Z,8.46
2022-12-14T18:20:52.836Z,8.47
2022-12-14T18:23:27.804Z,8.48
2022-12-14T18:26:02.699Z,8.51
2022-12-14T18:28:37.774Z,8.53
2022-12-14T18:31:20.732Z,8.55
2022-12-14T18:33:54.641Z,8.56
2022-12-14T18:36:27.826Z,8.57
2022-12-14T18:39:01.301Z,8.59
2022-12-14T18:41:34.849Z,8.60
2022-12-14T18:44:11.947Z,8.59
2022-12-14T18:46:49.188Z,8.58
2022-12-14T18:49:23.240Z,8.59
2022-12-14T18:52:00.594Z,8.59
2022-12-14T18:54:33.657Z,8.59
2022-12-14T18:57:07.003Z,8.55
2022-12-14T18:59:46.932Z,8.58
2022-12-14T19:02:19.983Z,8.55
2022-12-14T19:04:55.359Z,8.55
2022-12-14T19:07:35.080Z,8.56
2022-12-14T19:10:08.706Z,8.53
2022-12-14T19:12:48.589Z,8.53
2022-12-14T19:15:25.203Z,8.54
2022-12-14T19:17:58.911Z,8.50
2022-12-14T19:20:31.884Z,8.51
2022-12-14T19:23:05.345Z,8.52
2022-12-14T19:25:38.647Z,8.49
2022-12-14T19:28:30.888Z,8.48
2022-12-14T19:31:07.083Z,8.49
2022-12-14T19:33:41.450Z,8.48
2022-12-14T19:36:14.583Z,8.45
2022-12-14T19:38:49.124Z,8.48
2022-12-14T19:41:23.340Z,8.48
2022-12-14T19:44:04.849Z,8.47
2022-12-14T19:46:41.805Z,8.47
2022-12-14T19:49:16.699Z,8.45
2022-12-14T19:51:50.795Z,8.47
2022-12-14T19:54:24.294Z,8.45
2022-12-14T19:56:58.057Z,8.46
2022-12-14T19:59:31.033Z,8.44
2022-12-14T20:02:05.773Z,8.46
2022-12-14T20:04:39.981Z,8.43
2022-12-14T20:07:18.423Z,8.43
2022-12-14T20:09:51.588Z,8.44
2022-12-14T20:12:25.123Z,8.43
2022-12-14T20:15:00.978Z,8.41
2022-12-14T20:17:54.374Z,8.45
2022-12-14T20:20:32.063Z,8.42
2022-12-14T20:23:05.396Z,8.43
2022-12-14T20:25:41.798Z,8.44
2022-12-14T20:28:14.906Z,8.43
2022-12-14T20:30:49.587Z,8.44
2022-12-14T20:33:29.927Z,8.47
2022-12-14T20:36:08.204Z,8.47
2022-12-14T20:38:43.614Z,8.45
2022-12-14T20:41:20.959Z,8.49
2022-12-14T20:43:56.737Z,8.50
2022-12-14T20:46:41.253Z,8.51
2022-12-14T20:49:22.641Z,8.54
2022-12-14T20:51:58.238Z,8.54
2022-12-14T20:54:31.369Z,8.54
2022-12-14T20:57:06.412Z,8.56
2022-12-14T20:59:39.506Z,8.55
2022-12-14T21:02:20.295Z,8.58
2022-12-14T21:04:59.691Z,8.55
2022-12-14T21:07:33.561Z,8.56
2022-12-14T21:10:07.637Z,8.55
2022-12-14T21:12:42.468Z,8.57
2022-12-14T21:15:15.502Z,8.57
2022-12-14T21:17:50.280Z,8.55
2022-12-14T21:20:25.021Z,8.54
2022-12-14T21:22:57.975Z,8.53
2022-12-14T21:25:30.851Z,8.52
2022-12-14T21:28:08.669Z,8.52
2022-12-14T21:30:41.547Z,8.48
2022-12-14T21:33:14.772Z,8.44
2022-12-14T21:35:49.292Z,8.41
2022-12-14T21:38:22.365Z,8.37
2022-12-14T21:41:25.030Z,8.33
2022-12-14T21:44:00.102Z,8.29
2022-12-14T21:46:33.237Z,8.25
2022-12-14T21:49:06.746Z,8.26
2022-12-14T21:51:41.293Z,8.23
2022-12-14T21:54:15.691Z,8.23
2022-12-14T21:57:16.762Z,8.22
2022-12-14T21:59:49.782Z,8.22
2022-12-14T22:02:25.641Z,8.22
2022-12-14T22:04:58.833Z,8.21
2022-12-14T22:07:35.035Z,8.21
2022-12-14T22:10:08.448Z,8.17
2022-12-14T22:12:41.348Z,8.12
2022-12-14T22:15:17.048Z,8.12
2022-12-14T22:17:50.740Z,8.11
2022-12-14T22:20:24.835Z,8.08
2022-12-14T22:23:00.322Z,8.07
2022-12-14T22:25:34.274Z,8.08
2022-12-14T22:28:08.601Z,8.05
2022-12-14T22:30:44.198Z,8.02
2022-12-14T22:33:17.107Z,8.01
2022-12-14T22:35:50.140Z,8.00
2022-12-14T22:38:24.722Z,7.99
2022-12-14T22:41:03.128Z,7.97
2022-12-14T22:43:37.544Z,7.91
2022-12-14T22:46:12.647Z,7.88
2022-12-14T22:48:47.034Z,7.85
2022-12-14T22:51:20.758Z,7.83
2022-12-14T22:53:55.279Z,7.83
2022-12-14T22:56:33.045Z,7.82
2022-12-14T22:59:08.866Z,7.81
2022-12-14T23:01:42.272Z,7.82
2022-12-14T23:04:15.660Z,7.81
2022-12-14T23:06:48.696Z,7.81
2022-12-14T23:09:40.771Z,7.81
2022-12-14T23:12:31.011Z,7.81
2022-12-14T23:15:21.814Z,7.80
2022-12-14T23:18:13.558Z,7.79
2022-12-14T23:21:03.780Z,7.79
2022-12-14T23:23:56.371Z,7.80
2022-12-14T23:26:48.567Z,7.82
2022-12-14T23:29:39.014Z,7.80
2022-12-14T23:32:29.506Z,7.79
2022-12-14T23:35:19.613Z,7.79
2022-12-14T23:38:10.059Z,7.77
2022-12-14T23:41:00.501Z,7.75
2022-12-14T23:43:52.202Z,7.74
2022-12-14T23:46:42.548Z,7.72
2022-12-14T23:49:32.923Z,7.71
2022-12-14T23:52:23.970Z,7.70
2022-12-14T23:55:14.748Z,7.70
2022-12-14T23:58:05.164Z,7.69
